createdAt,value
2017-10-06T09:33:08.109Z,4.37
2017-10-06T09:35:34.776Z,4.18
2017-10-06T09:38:01.433Z,3.80
2017-10-06T09:40:28.093Z,3.30
2017-10-06T09:42:54.780Z,4.20
2017-10-06T09:45:21.439Z,3.15
2017-10-06T09:47:48.124Z,2.83
2017-10-06T09:50:14.801Z,3.87
2017-10-06T09:52:41.460Z,3.87
2017-10-06T09:55:08.121Z,3.95
2017-10-06T09:57:34.785Z,3.47
2017-10-06T10:00:01.457Z,4.95
2017-10-06T10:02:28.117Z,3.50
2017-10-06T10:04:54.805Z,4.22
2017-10-06T10:07:21.477Z,3.50
2017-10-06T10:09:48.248Z,3.60
2017-10-06T10:12:14.913Z,3.97
2017-10-06T10:14:41.588Z,3.90
2017-10-06T10:17:08.256Z,3.95
2017-10-06T10:19:34.931Z,3.35
2017-10-06T10:22:01.605Z,3.40
2017-10-06T10:24:28.272Z,3.70
2017-10-06T10:26:54.944Z,3.85
2017-10-06T10:29:21.604Z,3.10
2017-10-06T10:31:48.299Z,3.35
2017-10-06T10:34:14.968Z,3.50
2017-10-06T10:36:41.640Z,3.05
2017-10-06T10:39:08.320Z,3.12
2017-10-06T10:41:35.020Z,2.60
2017-10-06T10:44:01.686Z,2.70
2017-10-06T10:46:28.348Z,2.78
2017-10-06T10:48:55.014Z,3.87
2017-10-06T10:51:21.681Z,3.20
2017-10-06T10:53:48.352Z,3.35
2017-10-06T10:56:15.016Z,3.93
2017-10-06T10:58:41.717Z,3.20
2017-10-06T11:01:08.376Z,3.50
2017-10-06T11:03:35.044Z,3.70
2017-10-06T11:06:01.728Z,3.60
2017-10-06T11:08:28.408Z,4.03
2017-10-06T11:10:55.076Z,4.05
2017-10-06T11:13:21.744Z,3.75
2017-10-06T11:15:48.420Z,4.32
2017-10-06T11:18:15.093Z,3.60
2017-10-06T11:20:41.761Z,3.80
2017-10-06T11:23:08.424Z,4.95
2017-10-06T11:25:35.093Z,4.80
2017-10-06T11:28:01.761Z,4.15
2017-10-06T11:30:28.458Z,4.00
2017-10-06T11:32:55.124Z,4.50
2017-10-06T11:35:21.796Z,4.35
2017-10-06T11:37:48.466Z,3.90
2017-10-06T11:40:15.128Z,4.03
2017-10-06T11:42:41.788Z,4.53
2017-10-06T11:45:08.456Z,4.45
2017-10-06T11:47:35.128Z,3.78
2017-10-06T11:50:02.125Z,3.45
2017-10-06T11:52:28.788Z,4.05
2017-10-06T11:54:55.452Z,3.97
2017-10-06T11:57:22.120Z,3.75
2017-10-06T11:59:48.785Z,4.60
2017-10-06T12:02:15.453Z,4.50
2017-10-06T12:04:42.132Z,4.03
2017-10-06T12:07:08.829Z,4.30
2017-10-06T12:09:35.496Z,4.30
2017-10-06T12:12:02.164Z,3.97
2017-10-06T12:14:28.836Z,6.53
2017-10-06T12:16:55.500Z,4.57
2017-10-06T12:19:22.161Z,4.97
2017-10-06T12:21:48.820Z,3.80
2017-10-06T12:24:15.488Z,6.93
2017-10-06T12:26:42.156Z,4.68
2017-10-06T12:29:08.868Z,4.85
2017-10-06T12:31:35.715Z,5.07
2017-10-06T12:34:02.409Z,6.12
2017-10-06T12:36:29.069Z,3.65
2017-10-06T12:38:55.732Z,3.50
2017-10-06T12:41:22.404Z,3.72
2017-10-06T12:43:49.064Z,3.78
2017-10-06T12:46:15.730Z,2.37
2017-10-06T12:48:42.392Z,2.85
2017-10-06T12:51:09.105Z,2.60
2017-10-06T12:53:35.777Z,2.80
2017-10-06T12:56:02.461Z,2.50
2017-10-06T12:58:29.123Z,2.30
2017-10-06T13:00:55.797Z,2.30
2017-10-06T13:03:22.484Z,2.35
2017-10-06T13:05:49.148Z,1.98
2017-10-06T13:08:15.832Z,2.20
2017-10-06T13:10:42.501Z,2.50
2017-10-06T13:13:09.188Z,2.00
2017-10-06T13:15:35.850Z,1.45
2017-10-06T13:18:02.541Z,2.20
2017-10-06T13:20:29.208Z,2.00
2017-10-06T13:22:55.896Z,1.92
2017-10-06T13:25:22.563Z,2.10
2017-10-06T13:27:49.257Z,1.95
2017-10-06T13:30:15.919Z,2.10
2017-10-06T13:32:42.580Z,2.42
2017-10-06T13:35:09.269Z,2.60
2017-10-06T13:37:35.932Z,2.67
2017-10-06T13:40:02.632Z,2.33
2017-10-06T13:42:29.296Z,2.55
2017-10-06T13:44:55.980Z,3.22
2017-10-06T13:47:22.649Z,2.72
2017-10-06T13:49:49.344Z,2.97
2017-10-06T13:52:16.009Z,2.80
2017-10-06T13:54:42.677Z,3.35
2017-10-06T13:57:09.348Z,2.85
2017-10-06T13:59:36.016Z,4.03
2017-10-06T14:02:02.724Z,3.03
2017-10-06T14:04:29.388Z,3.67
2017-10-06T14:06:56.152Z,3.60
2017-10-06T14:09:22.816Z,4.10
2017-10-06T14:11:49.493Z,4.75
2017-10-06T14:14:16.164Z,3.50
2017-10-06T14:16:42.830Z,6.12
2017-10-06T14:19:09.499Z,3.92
2017-10-06T14:21:36.172Z,3.25
2017-10-06T14:24:02.860Z,3.08
2017-10-06T14:26:29.548Z,3.30
2017-10-06T14:28:56.236Z,3.30
2017-10-06T14:31:22.908Z,3.03
2017-10-06T14:33:49.602Z,3.40
2017-10-06T14:36:16.307Z,3.20
2017-10-06T14:38:42.976Z,3.80
2017-10-06T14:41:09.646Z,4.30
2017-10-06T14:43:36.309Z,3.50
2017-10-06T14:46:02.977Z,3.33
2017-10-06T14:48:29.639Z,4.57
2017-10-06T14:50:56.328Z,3.62
2017-10-06T14:53:22.996Z,3.47
2017-10-06T14:55:49.685Z,3.30
2017-10-06T14:58:16.356Z,3.53
2017-10-06T15:00:43.034Z,2.90
2017-10-06T15:03:09.705Z,3.53
2017-10-06T15:05:36.372Z,4.00
2017-10-06T15:08:03.037Z,3.70
2017-10-06T15:10:29.711Z,3.83
2017-10-06T15:12:56.376Z,4.45
2017-10-06T15:15:23.046Z,3.30
2017-10-06T15:17:49.736Z,3.90
2017-10-06T15:20:16.396Z,4.20
2017-10-06T15:22:43.061Z,2.90
2017-10-06T15:25:09.736Z,4.12
2017-10-06T15:27:36.412Z,4.32
2017-10-06T15:30:03.081Z,4.07
2017-10-06T15:32:29.749Z,3.80
2017-10-06T15:34:56.415Z,4.45
2017-10-06T15:37:23.081Z,3.67
2017-10-06T15:39:49.743Z,3.80
2017-10-06T15:42:16.404Z,4.30
2017-10-06T15:44:43.094Z,4.00
2017-10-06T15:47:09.761Z,4.15
2017-10-06T15:49:36.477Z,4.20
2017-10-06T15:52:03.148Z,4.05
2017-10-06T15:54:29.840Z,4.10
2017-10-06T15:56:56.507Z,3.70
2017-10-06T15:59:23.178Z,4.80
2017-10-06T16:01:49.849Z,3.25
2017-10-06T16:04:16.524Z,4.47
2017-10-06T16:06:43.208Z,3.60
2017-10-06T16:09:09.869Z,3.65
2017-10-06T16:11:36.560Z,3.90
2017-10-06T16:14:03.248Z,3.90
2017-10-06T16:16:29.932Z,3.70
2017-10-06T16:18:56.597Z,4.05
2017-10-06T16:21:23.284Z,3.90
2017-10-06T16:23:49.948Z,3.90
2017-10-06T16:26:16.641Z,5.80
2017-10-06T16:28:43.311Z,4.55
2017-10-06T16:31:10.004Z,5.12
2017-10-06T16:33:36.664Z,4.50
2017-10-06T16:36:03.333Z,4.85
2017-10-06T16:38:30.000Z,4.30
2017-10-06T16:40:56.664Z,4.65
2017-10-06T16:43:23.324Z,4.50
2017-10-06T16:45:49.996Z,5.85
2017-10-06T16:48:16.705Z,4.65
2017-10-06T16:50:43.389Z,5.22
2017-10-06T16:53:10.060Z,4.65
2017-10-06T16:55:36.734Z,4.95
2017-10-06T16:58:03.402Z,4.32
2017-10-06T17:00:30.072Z,5.57
2017-10-06T17:02:56.745Z,5.28
2017-10-06T17:05:23.418Z,5.62
2017-10-06T17:07:50.093Z,5.68
2017-10-06T17:10:16.768Z,5.97
2017-10-06T17:12:43.436Z,4.97
2017-10-06T17:15:10.108Z,5.78
2017-10-06T17:17:36.796Z,5.72
2017-10-06T17:20:03.476Z,4.95
2017-10-06T17:22:30.149Z,4.68
2017-10-06T17:24:56.828Z,5.37
2017-10-06T17:27:23.499Z,5.55
2017-10-06T17:29:50.164Z,4.60
2017-10-06T17:32:16.836Z,4.45
2017-10-06T17:34:43.550Z,4.70
2017-10-06T17:37:10.224Z,5.18
2017-10-06T17:39:36.893Z,4.10
2017-10-06T17:42:03.567Z,5.40
2017-10-06T17:44:30.240Z,4.47
2017-10-06T17:46:56.931Z,5.85
2017-10-06T17:49:23.600Z,5.03
2017-10-06T17:51:50.268Z,4.28
2017-10-06T17:54:16.928Z,4.10
2017-10-06T17:56:43.596Z,4.90
2017-10-06T17:59:10.260Z,5.20
2017-10-06T18:01:36.926Z,4.60
2017-10-06T18:04:03.597Z,5.95
2017-10-06T18:06:30.262Z,4.95
2017-10-06T18:08:56.932Z,4.40
2017-10-06T18:11:23.712Z,5.62
2017-10-06T18:13:50.376Z,5.68
2017-10-06T18:16:17.057Z,4.57
2017-10-06T18:18:43.724Z,4.70
2017-10-06T18:21:10.393Z,7.20
2017-10-06T18:23:37.089Z,4.45
2017-10-06T18:26:03.757Z,5.55
2017-10-06T18:28:30.424Z,6.53
2017-10-06T18:30:57.105Z,5.03
2017-10-06T18:33:23.792Z,5.32
2017-10-06T18:35:50.464Z,5.82
2017-10-06T18:38:17.136Z,6.25
2017-10-06T18:40:43.804Z,6.28
2017-10-06T18:43:10.480Z,6.68
2017-10-06T18:45:37.177Z,7.57
2017-10-06T18:48:03.852Z,6.10
2017-10-06T18:50:30.524Z,6.22
2017-10-06T18:52:57.192Z,6.40
2017-10-06T18:55:23.860Z,7.05
2017-10-06T18:57:50.537Z,7.12
2017-10-06T19:00:17.252Z,6.90
2017-10-06T19:02:43.926Z,6.47
2017-10-06T19:05:10.608Z,7.43
2017-10-06T19:07:37.275Z,5.40
2017-10-06T19:10:03.948Z,7.80
2017-10-06T19:12:30.616Z,5.90
2017-10-06T19:14:57.284Z,6.12
2017-10-06T19:17:23.952Z,6.53
2017-10-06T19:19:50.625Z,7.65
2017-10-06T19:22:17.316Z,7.18
2017-10-06T19:24:43.983Z,7.93
2017-10-06T19:27:10.688Z,8.05
2017-10-06T19:29:37.352Z,8.75
2017-10-06T19:32:04.022Z,7.65
2017-10-06T19:34:30.717Z,6.43
2017-10-06T19:36:57.389Z,6.28
2017-10-06T19:39:24.084Z,7.12
2017-10-06T19:41:50.748Z,7.60
2017-10-06T19:44:17.460Z,5.65
2017-10-06T19:46:44.132Z,7.65
2017-10-06T19:49:10.824Z,7.22
2017-10-06T19:51:37.492Z,6.75
2017-10-06T19:54:04.192Z,8.82
2017-10-06T19:56:30.869Z,7.93
2017-10-06T19:58:57.560Z,9.55
2017-10-06T20:01:24.245Z,7.37
2017-10-06T20:03:50.912Z,6.20
2017-10-06T20:06:17.585Z,6.85
2017-10-06T20:08:44.258Z,6.35
2017-10-06T20:11:10.951Z,7.50
2017-10-06T20:13:37.652Z,7.50
2017-10-06T20:16:04.356Z,13.77
2017-10-06T20:18:31.033Z,8.00
2017-10-06T20:20:57.745Z,8.63
2017-10-06T20:23:24.443Z,10.35
2017-10-06T20:25:51.165Z,9.07
2017-10-06T20:28:17.837Z,7.00
2017-10-06T20:30:44.537Z,7.62
2017-10-06T20:33:11.212Z,6.95
2017-10-06T20:35:37.920Z,6.82
2017-10-06T20:38:04.594Z,6.80
2017-10-06T20:40:31.304Z,7.10
2017-10-06T20:42:57.982Z,8.05
2017-10-06T20:45:24.656Z,7.40
2017-10-06T20:47:51.321Z,7.05
2017-10-06T20:50:17.983Z,8.90
2017-10-06T20:52:44.652Z,8.50
2017-10-06T20:55:11.325Z,8.75
2017-10-06T20:57:38.021Z,6.70
2017-10-06T21:00:04.693Z,7.65
2017-10-06T21:02:31.389Z,7.50
2017-10-06T21:04:58.072Z,6.60
2017-10-06T21:07:24.741Z,7.12
2017-10-06T21:09:51.500Z,6.75
2017-10-06T21:12:18.193Z,6.90
2017-10-06T21:14:44.896Z,5.47
2017-10-06T21:17:11.588Z,6.78
2017-10-06T21:19:38.357Z,6.18
2017-10-06T21:22:05.073Z,6.57
2017-10-06T21:24:31.784Z,6.95
2017-10-06T21:26:58.472Z,5.75
2017-10-06T21:29:25.156Z,6.43
2017-10-06T21:31:51.870Z,5.70
2017-10-06T21:34:18.604Z,5.50
2017-10-06T21:36:45.276Z,4.95
2017-10-06T21:39:11.957Z,5.87
2017-10-06T21:41:38.655Z,5.82
2017-10-06T21:44:05.328Z,5.18
2017-10-06T21:46:32.021Z,4.87
2017-10-06T21:48:58.729Z,6.10
2017-10-06T21:51:25.465Z,6.10
2017-10-06T21:53:52.147Z,5.15
2017-10-06T21:56:18.821Z,5.32
2017-10-06T21:58:45.500Z,5.60
2017-10-06T22:01:12.173Z,5.68
2017-10-06T22:03:38.844Z,5.22
2017-10-06T22:06:05.544Z,5.37
2017-10-06T22:08:32.239Z,7.78
2017-10-06T22:10:58.910Z,6.40
2017-10-06T22:13:25.633Z,6.00
2017-10-06T22:15:52.308Z,5.82
2017-10-06T22:18:18.981Z,5.70
2017-10-06T22:20:45.652Z,5.55
2017-10-06T22:23:12.324Z,6.07
2017-10-06T22:25:38.988Z,5.82
2017-10-06T22:28:05.656Z,5.53
2017-10-06T22:30:32.324Z,5.68
2017-10-06T22:32:58.996Z,5.45
2017-10-06T22:35:25.664Z,5.70
2017-10-06T22:37:52.328Z,5.90
2017-10-06T22:40:19.012Z,6.00
2017-10-06T22:42:45.672Z,6.28
2017-10-06T22:45:12.331Z,5.35
2017-10-06T22:47:38.992Z,5.03
2017-10-06T22:50:05.656Z,5.57
2017-10-06T22:52:32.324Z,5.90
2017-10-06T22:54:58.992Z,5.70
2017-10-06T22:57:25.655Z,5.82
2017-10-06T22:59:52.314Z,5.78
2017-10-06T23:02:18.975Z,7.07
2017-10-06T23:04:45.643Z,6.20
2017-10-06T23:07:12.352Z,5.50
2017-10-06T23:09:39.020Z,4.95
2017-10-06T23:12:05.748Z,4.37
2017-10-06T23:14:33.247Z,5.65
2017-10-06T23:16:59.907Z,5.12
2017-10-06T23:19:26.572Z,5.47
2017-10-06T23:21:53.240Z,6.30
2017-10-06T23:24:19.931Z,6.32
2017-10-06T23:26:46.643Z,5.25
2017-10-06T23:29:13.351Z,5.15
2017-10-06T23:31:40.024Z,5.65
2017-10-06T23:34:06.728Z,5.68
2017-10-06T23:36:33.391Z,6.20
2017-10-06T23:39:00.061Z,5.55
2017-10-06T23:41:26.726Z,6.55
2017-10-06T23:43:53.396Z,4.85
2017-10-06T23:46:20.085Z,5.22
2017-10-06T23:48:46.753Z,5.45
2017-10-06T23:51:13.452Z,6.68
2017-10-06T23:53:40.120Z,6.22
2017-10-06T23:56:06.811Z,5.10
2017-10-06T23:58:33.479Z,5.68
